Flight Track Log - Related Links

Times and Time Zones

All times are in EDT time to prevent confusion due to time zone crossing. See the CHH7754 flight status page for this flight to view local times or setup timezone preferences in your user account.

Time Position Orientation Groundspeed Altitude Reporting Facility
EDT Latitude Longitude Course Direction KTS MPH feet Rate Location/Type
Sat 10:35:00 AM 34.9548 118.3730 199° South  Level Estimated
Sat 10:36:00 AM 34.8636 118.3344 199° South  Level Estimated
Sat 10:37:00 AM 34.7723 118.2960 199° South  Level Estimated
Sat 10:38:00 AM 34.6810 118.2576 199° South  Level Estimated
Sat 10:39:00 AM 34.5897 118.2192 199° South  Level Estimated
Sat 10:40:00 AM 34.4984 118.1810 199° South  Level Estimated
Sat 10:41:00 AM 34.4070 118.1429 199° South  Level Estimated
Sat 10:42:00 AM 34.3157 118.1048 199° South  Level Estimated
Sat 10:43:00 AM 34.2243 118.0668 199° South  Level Estimated
Sat 10:44:00 AM 34.1330 118.0289 199° South  Level Estimated
Sat 10:45:00 AM 34.0416 117.9911 199° South  Level Estimated
Sat 10:46:00 AM 33.9502 117.9533 199° South  Level Estimated
Sat 10:47:00 AM 33.8588 117.9157 199° South  Level Estimated
Sat 10:48:00 AM 33.7674 117.8781 199° South  Level Estimated
Sat 10:49:00 AM 33.6760 117.8406 199° South  Level Estimated
Sat 10:50:00 AM 33.5845 117.8032 199° South  Level Estimated
Sat 10:51:00 AM 33.4931 117.7658 199° South  Level Estimated
Sat 10:52:00 AM 33.4016 117.7286 199° South  Level Estimated
Sat 10:53:00 AM 33.3101 117.6914 199° South  Level Estimated
Sat 10:54:00 AM 33.2187 117.6543 199° South  Level Estimated
Sat 10:55:00 AM 33.1272 117.6173 199° South  Level Estimated
Sat 10:56:00 AM 33.0357 117.5803 199° South  Level Estimated
Sat 10:57:00 AM 32.9442 117.5434 199° South  Level Estimated
Sat 10:58:00 AM 32.8526 117.5067 199° South  Level Estimated
Sat 10:59:00 AM 32.7611 117.4699 199° South  Level Estimated
Sat 11:00:00 AM 32.6696 117.4333 199° South  Level Estimated
Sat 11:01:00 AM 32.5780 117.3967 199° South  Level Estimated
Sat 11:02:00 AM 32.4864 117.3602 199° South  Level Estimated
Sat 11:03:00 AM 32.3948 117.3238 199° South  Level Estimated
Sat 11:04:00 AM 32.3032 117.2875 199° South  Level Estimated
Sat 11:05:00 AM 32.2130 117.2517 199° South  Level Estimated
Sat 11:06:00 AM 32.1227 117.2160 199° South  Level Estimated
Sat 11:07:00 AM 32.0324 117.1805 198° South  Level Estimated
Sat 11:08:00 AM 31.9422 117.1449 198° South  Level Estimated
Sat 11:09:00 AM 31.8519 117.1095 198° South  Level Estimated
Sat 11:10:00 AM 31.7615 117.0741 198° South  Level Estimated
Sat 11:11:00 AM 31.6712 117.0387 198° South  Level Estimated
Sat 11:12:00 AM 31.5809 117.0035 198° South  Level Estimated
Sat 11:13:00 AM 31.4905 116.9683 198° South  Level Estimated
Sat 11:14:00 AM 31.4002 116.9332 198° South  Level Estimated
Sat 11:15:00 AM 31.3098 116.8981 198° South  Level Estimated
Sat 11:16:00 AM 31.2195 116.8631 198° South  Level Estimated
Sat 11:17:00 AM 31.1291 116.8282 198° South  Level Estimated
Sat 11:18:00 AM 31.0387 116.7934 198° South  Level Estimated
Sat 11:19:00 AM 30.9483 116.7586 198° South  Level Estimated
Sat 11:20:00 AM 30.8579 116.7239 198° South  Level Estimated
Sat 11:21:00 AM 30.7675 116.6892 198° South  Level Estimated
Sat 11:22:00 AM 30.6770 116.6546 198° South  Level Estimated
Sat 11:23:00 AM 30.5866 116.6201 198° South  Level Estimated
Sat 11:24:00 AM 30.4962 116.5856 198° South  Level Estimated
Sat 11:25:00 AM 30.4057 116.5512 198° South  Level Estimated
Sat 11:26:00 AM 30.3153 116.5169 198° South  Level Estimated
Sat 11:27:00 AM 30.2248 116.4826 198° South  Level Estimated
Sat 11:28:00 AM 30.1343 116.4484 198° South  Level Estimated
Sat 11:29:00 AM 30.0438 116.4143 198° South  Level Estimated
Sat 11:30:00 AM 29.9533 116.3802 198° South  Level Estimated
Sat 11:31:00 AM 29.8628 116.3462 198° South  Level Estimated
Sat 11:32:00 AM 29.7723 116.3122 198° South  Level Estimated
Sat 11:33:00 AM 29.6818 116.2783 198° South  Level Estimated
Sat 11:34:00 AM 29.5913 116.2445 198° South  Level Estimated
Sat 11:35:00 AM 29.5007 116.2107 198° South  Level Estimated
Sat 11:36:00 AM 29.4102 116.1770 198° South  Level Estimated
Sat 11:37:00 AM 29.3196 116.1433 198° South  Level Estimated
Sat 11:38:00 AM 29.2290 116.1098 198° South  Level Estimated
Sat 11:39:00 AM 29.1385 116.0762 198° South  Level Estimated
Sat 11:40:00 AM 29.0479 116.0427 198° South  Level Estimated
Sat 11:41:00 AM 28.9573 116.0093 198° South  Level Estimated
Sat 11:42:00 AM 28.8667 115.9760 198° South  Level Estimated
Sat 11:43:00 AM 28.7761 115.9427 198° South  Level Estimated
Sat 11:44:00 AM 28.6855 115.9094 198° South  Level Estimated
Sat 11:45:00 AM 28.5949 115.8762 198° South  Level Estimated
Sat 11:46:00 AM 28.5042 115.8431 198° South  Level Estimated
Sat 11:47:00 AM 28.4136 115.8100 198° South  Level Estimated
Sat 11:48:00 AM 28.3229 115.7770 198° South  Level Estimated
Sat 11:49:00 AM 28.2323 115.7440 198° South  Level Estimated
Sat 11:50:00 AM 28.1416 115.7112 198° South  Level Estimated
Sat 11:51:00 AM 28.0509 115.6783 198° South  Level Estimated
Sat 11:52:00 AM 27.9603 115.6455 198° South  Level Estimated
Sat 11:53:00 AM 27.8696 115.6128 198° South  Level Estimated
Sat 11:54:00 AM 27.7789 115.5801 198° South  Level Estimated
Sat 11:55:00 AM 27.6882 115.5475 198° South  Level Estimated
Sat 11:56:00 AM 27.5975 115.5149 198° South  Level Estimated
Sat 11:57:00 AM 27.5068 115.4824 198° South  Level Estimated
Sat 11:58:00 AM 27.4160 115.4499 198° South  Level Estimated
Sat 11:59:00 AM 27.3253 115.4175 198° South  Level Estimated
Sat 12:00:00 PM 27.2346 115.3851 198° South  Level Estimated
Sat 12:01:00 PM 27.1438 115.3528 198° South  Level Estimated
Sat 12:02:00 PM 27.0531 115.3206 198° South  Level Estimated
Sat 12:03:00 PM 26.9623 115.2884 198° South  Level Estimated
Sat 12:04:00 PM 26.8715 115.2562 198° South  Level Estimated
Sat 12:05:00 PM 26.7808 115.2241 198° South  Level Estimated
Sat 12:06:00 PM 26.6900 115.1921 198° South  Level Estimated
Sat 12:07:00 PM 26.5992 115.1601 197° South  Level Estimated
Sat 12:08:00 PM 26.5084 115.1281 197° South  Level Estimated
Sat 12:09:00 PM 26.4176 115.0962 197° South  Level Estimated
Sat 12:10:00 PM 26.3268 115.0644 197° South  Level Estimated
Sat 12:11:00 PM 26.2360 115.0326 197° South  Level Estimated
Sat 12:12:00 PM 26.1451 115.0008 197° South  Level Estimated
Sat 12:13:00 PM 26.0543 114.9691 197° South  Level Estimated
Sat 12:14:00 PM 25.9634 114.9375 197° South  Level Estimated
Sat 12:15:00 PM 25.8726 114.9059 197° South  Level Estimated
Sat 12:16:00 PM 25.7817 114.8743 197° South  Level Estimated
Sat 12:17:00 PM 25.6909 114.8428 197° South  Level Estimated
Sat 12:18:00 PM 25.6000 114.8114 197° South  Level Estimated
Sat 12:19:00 PM 25.5091 114.7800 197° South  Level Estimated
Sat 12:20:00 PM 25.4183 114.7486 197° South  Level Estimated
Sat 12:21:00 PM 25.3274 114.7173 197° South  Level Estimated
Sat 12:22:00 PM 25.2365 114.6860 197° South  Level Estimated
Sat 12:23:00 PM 25.1456 114.6548 197° South  Level Estimated
Sat 12:24:00 PM 25.0547 114.6236 197° South  Level Estimated
Sat 12:25:00 PM 24.9638 114.5925 197° South  Level Estimated
Sat 12:26:00 PM 24.8729 114.5614 197° South  Level Estimated
Sat 12:27:00 PM 24.7819 114.5304 197° South  Level Estimated
Sat 12:28:00 PM 24.6910 114.4994 197° South  Level Estimated
Sat 12:29:00 PM 24.6000 114.4685 197° South  Level Estimated
Sat 12:30:00 PM 24.5091 114.4376 197° South  Level Estimated
Sat 12:31:00 PM 24.4181 114.4067 197° South  Level Estimated
Sat 12:32:00 PM 24.3272 114.3759 197° South  Level Estimated
Sat 12:33:00 PM 24.2362 114.3452 197° South  Level Estimated
Sat 12:34:00 PM 24.1453 114.3144 197° South  Level Estimated
Sat 12:35:00 PM 24.0543 114.2838 197° South  Level Estimated
Sat 12:36:00 PM 23.9633 114.2531 197° South  Level Estimated
Sat 12:37:00 PM 23.8723 114.2225 197° South  Level Estimated
Sat 12:38:00 PM 23.7813 114.1920 197° South  Level Estimated
Sat 12:39:00 PM 23.6903 114.1615 197° South  Level Estimated
Sat 12:40:00 PM 23.5993 114.1310 197° South  Level Estimated
Sat 12:41:00 PM 23.5083 114.1006 197° South  Level Estimated
Sat 12:42:00 PM 23.4173 114.0702 197° South  Level Estimated
Sat 12:43:00 PM 23.3263 114.0399 197° South  Level Estimated
Sat 12:44:00 PM 23.2352 114.0096 197° South  Level Estimated
Sat 12:45:00 PM 23.1442 113.9794 197° South  Level Estimated
Sat 12:46:00 PM 23.0532 113.9492 197° South  Level Estimated
Sat 12:47:00 PM 22.9621 113.9190 197° South  Level Estimated
Sat 12:48:00 PM 22.8710 113.8888 197° South  Level Estimated
Sat 12:49:00 PM 22.7800 113.8588 197° South  Level Estimated
Sat 12:50:00 PM 22.6889 113.8287 197° South  Level Estimated
Sat 12:51:00 PM 22.6395 113.8124 197° South  Level Estimated
Sat 12:52:00 PM 22.6395 113.8124 25° Northeast  Level Estimated
Sat 12:53:00 PM 22.6395 113.8124 25° Northeast  Level Estimated

Login

Don't have an account? Register now (free) for customized features, flight alerts, and more!